sensor_id;sensor_type;location;lat;lon;timestamp;pressure;altitude;pressure_sealevel;temperature;humidity
6668;BME280;3370;47.712;9.082;2023-04-21T00:00:54;96631.38;;;3.68;100.00
6668;BME280;3370;47.712;9.082;2023-04-21T00:03:21;96624.31;;;3.44;100.00
6668;BME280;3370;47.712;9.082;2023-04-21T00:05:49;96625.28;;;3.39;100.00
6668;BME280;3370;47.712;9.082;2023-04-21T00:08:16;96627.63;;;3.48;100.00
6668;BME280;3370;47.712;9.082;2023-04-21T00:10:42;96629.09;;;3.57;100.00
6668;BME280;3370;47.712;9.082;2023-04-21T00:13:08;96617.66;;;3.39;100.00
6668;BME280;3370;47.712;9.082;2023-04-21T00:15:34;96612.81;;;3.28;100.00
6668;BME280;3370;47.712;9.082;2023-04-21T00:18:00;96623.28;;;3.16;100.00
6668;BME280;3370;47.712;9.082;2023-04-21T00:20:26;96618.81;;;3.25;100.00
6668;BME280;3370;47.712;9.082;2023-04-21T00:22:55;96627.50;;;3.15;100.00
6668;BME280;3370;47.712;9.082;2023-04-21T00:25:22;96622.59;;;3.07;100.00
6668;BME280;3370;47.712;9.082;2023-04-21T00:27:48;96617.34;;;3.15;100.00
6668;BME280;3370;47.712;9.082;2023-04-21T00:30:15;96611.41;;;3.16;100.00
6668;BME280;3370;47.712;9.082;2023-04-21T00:32:40;96617.25;;;3.20;100.00
6668;BME280;3370;47.712;9.082;2023-04-21T00:35:07;96612.16;;;3.20;100.00
6668;BME280;3370;47.712;9.082;2023-04-21T00:37:33;96612.16;;;3.20;100.00
6668;BME280;3370;47.712;9.082;2023-04-21T00:39:58;96600.88;;;3.32;100.00
6668;BME280;3370;47.712;9.082;2023-04-21T00:42:24;96593.75;;;3.46;100.00
6668;BME280;3370;47.712;9.082;2023-04-21T00:44:51;96578.63;;;3.41;100.00
6668;BME280;3370;47.712;9.082;2023-04-21T00:47:18;96574.50;;;3.37;100.00
6668;BME280;3370;47.712;9.082;2023-04-21T00:49:45;96582.16;;;3.36;100.00
6668;BME280;3370;47.712;9.082;2023-04-21T00:52:13;96582.22;;;3.33;100.00
6668;BME280;3370;47.712;9.082;2023-04-21T00:54:40;96587.31;;;3.33;100.00
6668;BME280;3370;47.712;9.082;2023-04-21T00:57:06;96583.94;;;3.32;100.00
6668;BME280;3370;47.712;9.082;2023-04-21T00:59:33;96576.31;;;3.32;100.00
6668;BME280;3370;47.712;9.082;2023-04-21T01:01:59;96580.34;;;3.41;100.00
6668;BME280;3370;47.712;9.082;2023-04-21T01:04:25;96581.09;;;3.44;100.00
6668;BME280;3370;47.712;9.082;2023-04-21T01:06:51;96584.97;;;3.23;100.00
6668;BME280;3370;47.712;9.082;2023-04-21T01:09:17;96595.47;;;3.08;100.00
6668;BME280;3370;47.712;9.082;2023-04-21T01:12:03;96591.94;;;3.15;100.00
6668;BME280;3370;47.712;9.082;2023-04-21T01:14:29;96598.69;;;3.16;100.00
6668;BME280;3370;47.712;9.082;2023-04-21T01:16:56;96597.47;;;3.33;100.00
6668;BME280;3370;47.712;9.082;2023-04-21T01:19:29;96595.88;;;3.29;100.00
6668;BME280;3370;47.712;9.082;2023-04-21T01:21:56;96601.94;;;3.23;100.00
6668;BME280;3370;47.712;9.082;2023-04-21T01:24:39;96609.50;;;3.24;100.00
6668;BME280;3370;47.712;9.082;2023-04-21T01:27:10;96612.19;;;3.18;100.00
6668;BME280;3370;47.712;9.082;2023-04-21T01:29:39;96614.81;;;3.15;100.00
6668;BME280;3370;47.712;9.082;2023-04-21T01:32:13;96619.84;;;3.17;100.00
6668;BME280;3370;47.712;9.082;2023-04-21T01:34:40;96619.75;;;3.21;100.00
6668;BME280;3370;47.712;9.082;2023-04-21T01:37:09;96624.47;;;3.37;100.00
6668;BME280;3370;47.712;9.082;2023-04-21T01:39:40;96613.56;;;3.32;100.00
6668;BME280;3370;47.712;9.082;2023-04-21T01:42:07;96610.13;;;3.36;100.00
6668;BME280;3370;47.712;9.082;2023-04-21T01:44:33;96612.78;;;3.30;100.00
6668;BME280;3370;47.712;9.082;2023-04-21T01:46:59;96615.84;;;3.44;100.00
6668;BME280;3370;47.712;9.082;2023-04-21T01:49:25;96621.81;;;3.43;100.00
6668;BME280;3370;47.712;9.082;2023-04-21T01:51:51;96613.56;;;3.32;100.00
6668;BME280;3370;47.712;9.082;2023-04-21T01:54:17;96609.31;;;3.34;100.00
6668;BME280;3370;47.712;9.082;2023-04-21T01:56:43;96614.25;;;3.40;100.00
6668;BME280;3370;47.712;9.082;2023-04-21T01:59:08;96603.34;;;3.35;100.00
6668;BME280;3370;47.712;9.082;2023-04-21T02:01:34;96605.03;;;3.36;100.00
6668;BME280;3370;47.712;9.082;2023-04-21T02:04:02;96600.75;;;3.38;100.00
6668;BME280;3370;47.712;9.082;2023-04-21T02:06:28;96604.06;;;3.40;100.00
6668;BME280;3370;47.712;9.082;2023-04-21T02:08:56;96606.59;;;3.41;100.00
6668;BME280;3370;47.712;9.082;2023-04-21T02:11:24;96604.66;;;3.51;100.00
6668;BME280;3370;47.712;9.082;2023-04-21T02:13:54;96602.28;;;3.45;100.00
6668;BME280;3370;47.712;9.082;2023-04-21T02:16:21;96603.91;;;3.46;100.00
6668;BME280;3370;47.712;9.082;2023-04-21T02:18:54;96597.25;;;3.42;100.00
6668;BME280;3370;47.712;9.082;2023-04-21T02:21:25;96596.38;;;3.43;100.00
6668;BME280;3370;47.712;9.082;2023-04-21T02:23:51;96595.47;;;3.45;100.00
6668;BME280;3370;47.712;9.082;2023-04-21T02:26:17;96585.44;;;3.41;100.00
6668;BME280;3370;47.712;9.082;2023-04-21T02:28:43;96589.50;;;3.48;100.00
6668;BME280;3370;47.712;9.082;2023-04-21T02:31:09;96584.41;;;3.48;100.00
6668;BME280;3370;47.712;9.082;2023-04-21T02:33:35;96578.50;;;3.46;100.00
6668;BME280;3370;47.712;9.082;2023-04-21T02:36:03;96579.25;;;3.50;100.00
6668;BME280;3370;47.712;9.082;2023-04-21T02:38:28;96573.28;;;3.52;100.00
6668;BME280;3370;47.712;9.082;2023-04-21T02:40:56;96578.44;;;3.49;100.00
6668;BME280;3370;47.712;9.082;2023-04-21T02:43:22;96579.22;;;3.51;100.00
6668;BME280;3370;47.712;9.082;2023-04-21T02:45:48;96582.66;;;3.50;100.00
6668;BME280;3370;47.712;9.082;2023-04-21T02:48:14;96584.41;;;3.48;100.00
6668;BME280;3370;47.712;9.082;2023-04-21T02:50:41;96587.66;;;3.53;100.00
6668;BME280;3370;47.712;9.082;2023-04-21T02:53:07;96590.19;;;3.53;100.00
6668;BME280;3370;47.712;9.082;2023-04-21T02:55:33;96593.63;;;3.52;100.00
6668;BME280;3370;47.712;9.082;2023-04-21T02:57:59;96600.84;;;3.68;100.00
6668;BME280;3370;47.712;9.082;2023-04-21T03:00:24;96605.16;;;3.65;100.00
6668;BME280;3370;47.712;9.082;2023-04-21T03:02:50;96611.16;;;3.63;100.00
6668;BME280;3370;47.712;9.082;2023-04-21T03:05:17;96617.13;;;3.60;100.00
6668;BME280;3370;47.712;9.082;2023-04-21T03:07:46;96610.66;;;3.49;100.00
6668;BME280;3370;47.712;9.082;2023-04-21T03:10:12;96603.06;;;3.47;100.00
6668;BME280;3370;47.712;9.082;2023-04-21T03:12:37;96607.28;;;3.48;100.00
6668;BME280;3370;47.712;9.082;2023-04-21T03:15:04;96608.94;;;3.49;100.00
6668;BME280;3370;47.712;9.082;2023-04-21T03:17:30;96600.38;;;3.53;100.00
6668;BME280;3370;47.712;9.082;2023-04-21T03:19:56;96602.66;;;3.64;100.00
6668;BME280;3370;47.712;9.082;2023-04-21T03:22:21;96609.53;;;3.59;100.00
6668;BME280;3370;47.712;9.082;2023-04-21T03:24:47;96598.53;;;3.58;100.00
6668;BME280;3370;47.712;9.082;2023-04-21T03:27:13;96591.84;;;3.56;100.00
6668;BME280;3370;47.712;9.082;2023-04-21T03:29:39;96589.09;;;3.63;100.00
6668;BME280;3370;47.712;9.082;2023-04-21T03:32:04;96574.63;;;3.65;100.00
6668;BME280;3370;47.712;9.082;2023-04-21T03:34:30;96575.44;;;3.68;100.00
6668;BME280;3370;47.712;9.082;2023-04-21T03:36:56;96572.66;;;3.77;100.00
6668;BME280;3370;47.712;9.082;2023-04-21T03:39:22;96582.19;;;4.01;100.00
6668;BME280;3370;47.712;9.082;2023-04-21T03:41:48;96580.34;;;3.75;100.00
6668;BME280;3370;47.712;9.082;2023-04-21T03:44:13;96603.88;;;3.48;100.00
6668;BME280;3370;47.712;9.082;2023-04-21T03:46:39;96597.25;;;3.42;100.00
6668;BME280;3370;47.712;9.082;2023-04-21T03:49:05;96587.09;;;3.42;100.00
6668;BME280;3370;47.712;9.082;2023-04-21T03:51:30;96571.59;;;3.51;100.00
6668;BME280;3370;47.712;9.082;2023-04-21T03:53:57;96569.78;;;3.56;100.00
6668;BME280;3370;47.712;9.082;2023-04-21T03:56:23;96576.31;;;3.67;100.00
6668;BME280;3370;47.712;9.082;2023-04-21T03:58:49;96567.81;;;3.68;100.00
6668;BME280;3370;47.712;9.082;2023-04-21T04:01:15;96580.56;;;3.66;100.00
6668;BME280;3370;47.712;9.082;2023-04-21T04:03:41;96561.06;;;3.67;100.00
6668;BME280;3370;47.712;9.082;2023-04-21T04:06:06;96562.59;;;3.74;100.00
6668;BME280;3370;47.712;9.082;2023-04-21T04:08:32;96569.97;;;3.83;100.00
6668;BME280;3370;47.712;9.082;2023-04-21T04:10:58;96575.06;;;3.83;100.00
6668;BME280;3370;47.712;9.082;2023-04-21T04:13:24;96571.81;;;3.76;100.00
6668;BME280;3370;47.712;9.082;2023-04-21T04:15:51;96577.97;;;3.68;100.00
6668;BME280;3370;47.712;9.082;2023-04-21T04:18:17;96584.09;;;3.60;100.00
6668;BME280;3370;47.712;9.082;2023-04-21T04:20:43;96580.88;;;3.54;100.00
6668;BME280;3370;47.712;9.082;2023-04-21T04:23:09;96580.88;;;3.54;100.00
6668;BME280;3370;47.712;9.082;2023-04-21T04:25:34;96561.19;;;3.60;100.00
6668;BME280;3370;47.712;9.082;2023-04-21T04:28:01;96559.38;;;3.65;100.00
6668;BME280;3370;47.712;9.082;2023-04-21T04:30:28;96547.47;;;3.68;100.00
6668;BME280;3370;47.712;9.082;2023-04-21T04:32:54;96532.06;;;3.74;100.00
6668;BME280;3370;47.712;9.082;2023-04-21T04:35:22;96518.94;;;3.89;100.00
6668;BME280;3370;47.712;9.082;2023-04-21T04:37:48;96525.66;;;3.92;100.00
6668;BME280;3370;47.712;9.082;2023-04-21T04:40:14;96543.06;;;4.06;100.00
6668;BME280;3370;47.712;9.082;2023-04-21T04:42:41;96555.19;;;3.64;100.00
6668;BME280;3370;47.712;9.082;2023-04-21T04:45:07;96571.59;;;3.51;100.00
6668;BME280;3370;47.712;9.082;2023-04-21T04:47:34;96568.50;;;3.40;100.00
6668;BME280;3370;47.712;9.082;2023-04-21T04:50:00;96568.47;;;3.41;100.00
6668;BME280;3370;47.712;9.082;2023-04-21T04:52:25;96566.66;;;3.47;100.00
6668;BME280;3370;47.712;9.082;2023-04-21T04:54:51;96556.28;;;3.54;100.00
6668;BME280;3370;47.712;9.082;2023-04-21T04:57:17;96556.50;;;3.79;100.00
6668;BME280;3370;47.712;9.082;2023-04-21T04:59:43;96566.63;;;3.81;100.00
6668;BME280;3370;47.712;9.082;2023-04-21T05:02:09;96563.91;;;3.87;100.00
6668;BME280;3370;47.712;9.082;2023-04-21T05:04:35;96563.91;;;3.87;100.00
6668;BME280;3370;47.712;9.082;2023-04-21T05:07:01;96567.94;;;3.96;100.00
6668;BME280;3370;47.712;9.082;2023-04-21T05:09:27;96563.06;;;3.88;100.00
6668;BME280;3370;47.712;9.082;2023-04-21T05:11:53;96572.59;;;3.80;100.00
6668;BME280;3370;47.712;9.082;2023-04-21T05:14:18;96574.09;;;3.87;100.00
6668;BME280;3370;47.712;9.082;2023-04-21T05:16:44;96568.84;;;3.93;100.00
6668;BME280;3370;47.712;9.082;2023-04-21T05:19:11;96566.44;;;3.89;100.00
6668;BME280;3370;47.712;9.082;2023-04-21T05:21:36;96571.31;;;3.96;100.00
6668;BME280;3370;47.712;9.082;2023-04-21T05:24:02;96577.94;;;4.02;100.00
6668;BME280;3370;47.712;9.082;2023-04-21T05:26:29;96576.28;;;4.01;100.00
6668;BME280;3370;47.712;9.082;2023-04-21T05:28:56;96582.94;;;4.05;100.00
6668;BME280;3370;47.712;9.082;2023-04-21T05:31:25;96579.47;;;4.08;100.00
6668;BME280;3370;47.712;9.082;2023-04-21T05:33:52;96581.78;;;4.17;100.00
6668;BME280;3370;47.712;9.082;2023-04-21T05:36:17;96580.19;;;4.13;100.00
6668;BME280;3370;47.712;9.082;2023-04-21T05:38:44;96578.38;;;4.18;100.00
6668;BME280;3370;47.712;9.082;2023-04-21T05:41:10;96574.88;;;4.20;100.00
6668;BME280;3370;47.712;9.082;2023-04-21T05:43:36;96578.19;;;4.24;100.00
6668;BME280;3370;47.712;9.082;2023-04-21T05:46:07;96571.38;;;4.26;100.00
6668;BME280;3370;47.712;9.082;2023-04-21T05:48:33;96564.41;;;4.31;100.00
6668;BME280;3370;47.712;9.082;2023-04-21T05:51:11;96576.09;;;4.38;100.00
6668;BME280;3370;47.712;9.082;2023-04-21T05:53:38;96577.44;;;4.52;100.00
6668;BME280;3370;47.712;9.082;2023-04-21T05:56:04;96580.69;;;4.57;100.00
6668;BME280;3370;47.712;9.082;2023-04-21T05:58:32;96576.97;;;4.67;100.00
6668;BME280;3370;47.712;9.082;2023-04-21T06:00:57;96585.41;;;4.69;100.00
6668;BME280;3370;47.712;9.082;2023-04-21T06:03:23;96584.38;;;4.75;100.00
6668;BME280;3370;47.712;9.082;2023-04-21T06:05:54;96593.47;;;4.84;100.00
6668;BME280;3370;47.712;9.082;2023-04-21T06:08:20;96604.25;;;4.93;100.00
6668;BME280;3370;47.712;9.082;2023-04-21T06:10:46;96599.03;;;4.96;100.00
6668;BME280;3370;47.712;9.082;2023-04-21T06:13:12;96597.13;;;5.05;100.00
6668;BME280;3370;47.712;9.082;2023-04-21T06:15:38;96601.00;;;5.16;100.00
6668;BME280;3370;47.712;9.082;2023-04-21T06:18:03;96608.63;;;5.16;100.00
6668;BME280;3370;47.712;9.082;2023-04-21T06:20:29;96602.75;;;5.14;100.00
6668;BME280;3370;47.712;9.082;2023-04-21T06:22:55;96597.50;;;5.21;100.00
6668;BME280;3370;47.712;9.082;2023-04-21T06:25:21;96602.59;;;5.21;100.00
6668;BME280;3370;47.712;9.082;2023-04-21T06:27:47;96590.78;;;5.16;100.00
6668;BME280;3370;47.712;9.082;2023-04-21T06:30:13;96595.72;;;5.23;100.00
6668;BME280;3370;47.712;9.082;2023-04-21T06:32:39;96593.72;;;5.32;100.00
6668;BME280;3370;47.712;9.082;2023-04-21T06:35:05;96585.72;;;5.43;100.00
6668;BME280;3370;47.712;9.082;2023-04-21T06:37:31;96581.31;;;5.48;100.00
6668;BME280;3370;47.712;9.082;2023-04-21T06:39:57;96572.50;;;5.59;100.00
6668;BME280;3370;47.712;9.082;2023-04-21T06:42:23;96573.84;;;5.69;100.00
6668;BME280;3370;47.712;9.082;2023-04-21T06:44:48;96573.75;;;5.72;100.00
6668;BME280;3370;47.712;9.082;2023-04-21T06:47:15;96575.09;;;5.82;100.00
6668;BME280;3370;47.712;9.082;2023-04-21T06:49:41;96579.31;;;5.83;100.00
6668;BME280;3370;47.712;9.082;2023-04-21T06:52:07;96575.09;;;5.82;100.00
6668;BME280;3370;47.712;9.082;2023-04-21T06:54:33;96582.84;;;5.79;100.00
6668;BME280;3370;47.712;9.082;2023-04-21T06:56:59;96578.09;;;5.68;100.00
6668;BME280;3370;47.712;9.082;2023-04-21T06:59:24;96581.59;;;5.39;100.00
6668;BME280;3370;47.712;9.082;2023-04-21T07:01:50;96581.84;;;5.58;100.00
6668;BME280;3370;47.712;9.082;2023-04-21T07:04:18;96572.63;;;5.54;100.00
6668;BME280;3370;47.712;9.082;2023-04-21T07:06:44;96566.66;;;5.55;100.00
6668;BME280;3370;47.712;9.082;2023-04-21T07:09:10;96562.22;;;5.60;100.00
6668;BME280;3370;47.712;9.082;2023-04-21T07:11:35;96562.72;;;5.71;100.00
6668;BME280;3370;47.712;9.082;2023-04-21T07:14:01;96557.97;;;5.86;100.00
6668;BME280;3370;47.712;9.082;2023-04-21T07:16:28;96560.78;;;6.03;100.00
6668;BME280;3370;47.712;9.082;2023-04-21T07:18:54;96562.41;;;6.06;100.00
6668;BME280;3370;47.712;9.082;2023-04-21T07:21:19;96561.00;;;6.22;100.00
6668;BME280;3370;47.712;9.082;2023-04-21T07:23:45;96560.94;;;6.24;100.00
6668;BME280;3370;47.712;9.082;2023-04-21T07:26:11;96549.69;;;6.29;100.00
6668;BME280;3370;47.712;9.082;2023-04-21T07:28:37;96556.81;;;6.43;100.00
6668;BME280;3370;47.712;9.082;2023-04-21T07:31:05;96551.31;;;6.54;100.00
6668;BME280;3370;47.712;9.082;2023-04-21T07:33:31;96557.69;;;6.44;100.00
6668;BME280;3370;47.712;9.082;2023-04-21T07:35:57;96546.78;;;6.39;100.00
6668;BME280;3370;47.712;9.082;2023-04-21T07:38:23;96545.44;;;6.52;99.93
6668;BME280;3370;47.712;9.082;2023-04-21T07:40:49;96538.19;;;6.63;97.63
6668;BME280;3370;47.712;9.082;2023-04-21T07:43:15;96541.56;;;6.42;96.87
6668;BME280;3370;47.712;9.082;2023-04-21T07:45:41;96535.22;;;6.52;99.81
6668;BME280;3370;47.712;9.082;2023-04-21T07:48:07;96545.34;;;6.55;100.00
6668;BME280;3370;47.712;9.082;2023-04-21T07:50:33;96538.81;;;6.70;100.00
6668;BME280;3370;47.712;9.082;2023-04-21T07:53:01;96540.56;;;6.46;99.64
6668;BME280;3370;47.712;9.082;2023-04-21T07:55:28;96539.50;;;6.51;99.46
6668;BME280;3370;47.712;9.082;2023-04-21T07:57:54;96546.00;;;6.60;100.00
6668;BME280;3370;47.712;9.082;2023-04-21T08:00:20;96542.97;;;6.72;97.66
6668;BME280;3370;47.712;9.082;2023-04-21T08:02:46;96542.75;;;6.79;99.18
6668;BME280;3370;47.712;9.082;2023-04-21T08:05:13;96548.88;;;6.75;99.17
6668;BME280;3370;47.712;9.082;2023-04-21T08:07:39;96543.06;;;6.93;97.59
6668;BME280;3370;47.712;9.082;2023-04-21T08:10:06;96543.88;;;6.94;94.84
6668;BME280;3370;47.712;9.082;2023-04-21T08:12:32;96543.81;;;6.95;95.55
6668;BME280;3370;47.712;9.082;2023-04-21T08:14:58;96546.31;;;6.97;98.94
6668;BME280;3370;47.712;9.082;2023-04-21T08:17:24;96558.34;;;6.95;96.61
6668;BME280;3370;47.712;9.082;2023-04-21T08:19:49;96557.72;;;6.88;97.09
6668;BME280;3370;47.712;9.082;2023-04-21T08:22:15;96554.50;;;6.83;100.00
6668;BME280;3370;47.712;9.082;2023-04-21T08:24:41;96551.38;;;6.98;100.00
6668;BME280;3370;47.712;9.082;2023-04-21T08:27:07;96558.47;;;7.34;99.67
6668;BME280;3370;47.712;9.082;2023-04-21T08:29:33;96553.31;;;7.14;96.73
6668;BME280;3370;47.712;9.082;2023-04-21T08:31:58;96546.97;;;7.02;96.18
6668;BME280;3370;47.712;9.082;2023-04-21T08:34:24;96539.31;;;7.02;96.79
6668;BME280;3370;47.712;9.082;2023-04-21T08:36:50;96530.63;;;7.06;98.69
6668;BME280;3370;47.712;9.082;2023-04-21T08:39:16;96529.53;;;7.12;99.24
6668;BME280;3370;47.712;9.082;2023-04-21T08:41:42;96537.69;;;6.99;96.99
6668;BME280;3370;47.712;9.082;2023-04-21T08:44:08;96540.97;;;7.03;97.63
6668;BME280;3370;47.712;9.082;2023-04-21T08:46:36;96531.75;;;7.41;100.00
6668;BME280;3370;47.712;9.082;2023-04-21T08:49:02;96539.59;;;7.59;100.00
6668;BME280;3370;47.712;9.082;2023-04-21T08:51:29;96545.03;;;7.72;96.95
6668;BME280;3370;47.712;9.082;2023-04-21T08:53:56;96531.91;;;7.59;95.16
6668;BME280;3370;47.712;9.082;2023-04-21T08:56:24;96537.00;;;7.79;95.88
6668;BME280;3370;47.712;9.082;2023-04-21T08:58:51;96540.72;;;7.72;95.71
6668;BME280;3370;47.712;9.082;2023-04-21T09:01:16;96537.03;;;7.59;96.27
6668;BME280;3370;47.712;9.082;2023-04-21T09:03:42;96542.78;;;7.64;97.12
6668;BME280;3370;47.712;9.082;2023-04-21T09:06:09;96540.03;;;7.68;97.86
6668;BME280;3370;47.712;9.082;2023-04-21T09:08:41;96536.91;;;7.82;97.65
6668;BME280;3370;47.712;9.082;2023-04-21T09:11:08;96537.50;;;8.08;97.13
6668;BME280;3370;47.712;9.082;2023-04-21T09:13:37;96539.53;;;8.20;93.17
6668;BME280;3370;47.712;9.082;2023-04-21T09:16:20;96531.38;;;8.31;96.42
6668;BME280;3370;47.712;9.082;2023-04-21T09:18:46;96536.06;;;8.42;93.84
6668;BME280;3370;47.712;9.082;2023-04-21T09:21:16;96531.19;;;8.36;91.12
6668;BME280;3370;47.712;9.082;2023-04-21T09:23:51;96535.63;;;8.32;92.60
6668;BME280;3370;47.712;9.082;2023-04-21T09:26:19;96532.53;;;8.44;92.84
6668;BME280;3370;47.712;9.082;2023-04-21T09:28:48;96520.53;;;8.83;94.12
6668;BME280;3370;47.712;9.082;2023-04-21T09:31:20;96528.16;;;8.66;89.01
6668;BME280;3370;47.712;9.082;2023-04-21T09:33:55;96527.22;;;8.49;92.46
6668;BME280;3370;47.712;9.082;2023-04-21T09:36:27;96528.31;;;8.43;91.66
6668;BME280;3370;47.712;9.082;2023-04-21T09:41:19;96531.50;;;8.49;91.45
6668;BME280;3370;47.712;9.082;2023-04-21T09:43:47;96527.44;;;8.81;93.00
6668;BME280;3370;47.712;9.082;2023-04-21T09:46:15;96523.44;;;8.94;90.27
6668;BME280;3370;47.712;9.082;2023-04-21T09:48:44;96531.34;;;8.71;90.87
6668;BME280;3370;47.712;9.082;2023-04-21T09:51:15;96527.44;;;8.81;91.55
6668;BME280;3370;47.712;9.082;2023-04-21T09:53:44;96526.81;;;8.95;90.93
6668;BME280;3370;47.712;9.082;2023-04-21T09:56:12;96529.25;;;8.98;89.61
6668;BME280;3370;47.712;9.082;2023-04-21T09:58:53;96523.38;;;9.13;90.26
6668;BME280;3370;47.712;9.082;2023-04-21T10:01:19;96518.00;;;9.00;89.48
6668;BME280;3370;47.712;9.082;2023-04-21T10:03:48;96516.63;;;8.93;91.07
6668;BME280;3370;47.712;9.082;2023-04-21T10:06:14;96528.69;;;8.91;89.98
6668;BME280;3370;47.712;9.082;2023-04-21T10:08:41;96526.75;;;8.96;91.68
6668;BME280;3370;47.712;9.082;2023-04-21T10:11:07;96513.31;;;9.45;94.89
6668;BME280;3370;47.712;9.082;2023-04-21T10:13:35;96514.59;;;9.54;86.50
6668;BME280;3370;47.712;9.082;2023-04-21T10:16:08;96503.63;;;9.33;87.02
6668;BME280;3370;47.712;9.082;2023-04-21T10:18:36;96510.81;;;9.44;86.53
6668;BME280;3370;47.712;9.082;2023-04-21T10:21:08;96507.66;;;9.21;86.74
6668;BME280;3370;47.712;9.082;2023-04-21T10:23:47;96497.69;;;9.32;88.56
6668;BME280;3370;47.712;9.082;2023-04-21T10:26:23;96501.91;;;9.51;87.21
6668;BME280;3370;47.712;9.082;2023-04-21T10:28:57;96501.13;;;9.84;87.54
6668;BME280;3370;47.712;9.082;2023-04-21T10:31:49;96496.13;;;9.98;83.67
6668;BME280;3370;47.712;9.082;2023-04-21T10:34:33;96494.19;;;10.19;82.79
6668;BME280;3370;47.712;9.082;2023-04-21T10:39:32;96486.06;;;10.27;80.79
6668;BME280;3370;47.712;9.082;2023-04-21T10:45:00;96473.50;;;10.70;82.11
6668;BME280;3370;47.712;9.082;2023-04-21T10:50:29;96476.38;;;11.56;83.38
6668;BME280;3370;47.712;9.082;2023-04-21T10:55:38;96484.50;;;11.34;77.57
6668;BME280;3370;47.712;9.082;2023-04-21T10:58:08;96472.66;;;11.31;76.92
6668;BME280;3370;47.712;9.082;2023-04-21T11:00:35;96473.94;;;11.08;77.85
6668;BME280;3370;47.712;9.082;2023-04-21T11:03:05;96466.00;;;11.72;75.45
6668;BME280;3370;47.712;9.082;2023-04-21T11:05:38;96465.59;;;12.23;78.83
6668;BME280;3370;47.712;9.082;2023-04-21T11:08:12;96460.72;;;12.60;74.65
6668;BME280;3370;47.712;9.082;2023-04-21T11:13:11;96449.53;;;13.01;73.80
6668;BME280;3370;47.712;9.082;2023-04-21T11:15:37;96454.97;;;12.83;73.40
6668;BME280;3370;47.712;9.082;2023-04-21T11:18:03;96453.34;;;12.68;71.49
6668;BME280;3370;47.712;9.082;2023-04-21T11:20:29;96451.84;;;13.33;71.84
6668;BME280;3370;47.712;9.082;2023-04-21T11:22:56;96449.28;;;13.84;71.72
6668;BME280;3370;47.712;9.082;2023-04-21T11:25:22;96442.56;;;13.94;66.54
6668;BME280;3370;47.712;9.082;2023-04-21T11:27:55;96439.41;;;14.28;67.02
6668;BME280;3370;47.712;9.082;2023-04-21T11:30:31;96436.88;;;13.89;66.41
6668;BME280;3370;47.712;9.082;2023-04-21T11:32:58;96432.13;;;13.96;67.55
6668;BME280;3370;47.712;9.082;2023-04-21T11:35:24;96435.84;;;13.79;66.89
6668;BME280;3370;47.712;9.082;2023-04-21T11:37:50;96434.56;;;13.97;70.79
6668;BME280;3370;47.712;9.082;2023-04-21T11:40:17;96431.53;;;14.29;65.69
6668;BME280;3370;47.712;9.082;2023-04-21T11:42:43;96426.13;;;15.18;66.01
6668;BME280;3370;47.712;9.082;2023-04-21T11:45:17;96427.91;;;14.93;62.93
6668;BME280;3370;47.712;9.082;2023-04-21T11:47:44;96424.81;;;15.59;63.62
6668;BME280;3370;47.712;9.082;2023-04-21T11:50:10;96419.69;;;15.81;65.24
6668;BME280;3370;47.712;9.082;2023-04-21T11:52:36;96426.78;;;15.44;62.66
6668;BME280;3370;47.712;9.082;2023-04-21T11:55:13;96425.88;;;15.56;61.84
6668;BME280;3370;47.712;9.082;2023-04-21T11:57:41;96415.94;;;15.50;58.62
6668;BME280;3370;47.712;9.082;2023-04-21T12:00:10;96413.78;;;16.13;58.01
6668;BME280;3370;47.712;9.082;2023-04-21T12:02:37;96398.34;;;16.78;58.60
6668;BME280;3370;47.712;9.082;2023-04-21T12:05:11;96392.47;;;17.08;57.63
6668;BME280;3370;47.712;9.082;2023-04-21T12:07:41;96395.47;;;16.48;56.49
6668;BME280;3370;47.712;9.082;2023-04-21T12:10:19;96397.13;;;16.82;56.33
6668;BME280;3370;47.712;9.082;2023-04-21T12:12:45;96407.50;;;16.82;55.36
6668;BME280;3370;47.712;9.082;2023-04-21T12:15:18;96414.00;;;16.44;55.07
6668;BME280;3370;47.712;9.082;2023-04-21T12:17:46;96416.16;;;16.71;57.02
6668;BME280;3370;47.712;9.082;2023-04-21T12:20:15;96420.75;;;16.79;54.97
6668;BME280;3370;47.712;9.082;2023-04-21T12:22:42;96408.16;;;17.07;56.63
6668;BME280;3370;47.712;9.082;2023-04-21T12:25:08;96416.81;;;17.28;55.46
6668;BME280;3370;47.712;9.082;2023-04-21T12:27:34;96404.56;;;18.73;55.66
6668;BME280;3370;47.712;9.082;2023-04-21T12:30:00;96412.38;;;18.73;52.09
6668;BME280;3370;47.712;9.082;2023-04-21T12:32:26;96408.41;;;18.88;49.97
6668;BME280;3370;47.712;9.082;2023-04-21T12:34:52;96409.78;;;19.31;47.25
6668;BME280;3370;47.712;9.082;2023-04-21T12:37:18;96410.66;;;18.33;49.67
6668;BME280;3370;47.712;9.082;2023-04-21T12:39:44;96420.09;;;17.30;52.72
6668;BME280;3370;47.712;9.082;2023-04-21T12:42:10;96422.66;;;17.09;53.24
6668;BME280;3370;47.712;9.082;2023-04-21T12:44:36;96429.84;;;16.73;53.89
6668;BME280;3370;47.712;9.082;2023-04-21T12:47:02;96433.31;;;16.62;55.60
6668;BME280;3370;47.712;9.082;2023-04-21T12:49:28;96429.22;;;16.48;55.24
6668;BME280;3370;47.712;9.082;2023-04-21T12:51:54;96427.69;;;16.35;53.07
6668;BME280;3370;47.712;9.082;2023-04-21T12:54:19;96436.88;;;16.27;53.90
6668;BME280;3370;47.712;9.082;2023-04-21T12:56:45;96430.47;;;16.65;53.72
6668;BME280;3370;47.712;9.082;2023-04-21T12:59:11;96417.50;;;16.54;54.23
6668;BME280;3370;47.712;9.082;2023-04-21T13:01:39;96422.28;;;16.81;55.97
6668;BME280;3370;47.712;9.082;2023-04-21T13:04:06;96413.38;;;17.07;56.97
6668;BME280;3370;47.712;9.082;2023-04-21T13:06:32;96419.00;;;17.12;56.18
6668;BME280;3370;47.712;9.082;2023-04-21T13:08:58;96416.00;;;16.95;52.62
6668;BME280;3370;47.712;9.082;2023-04-21T13:11:24;96412.78;;;16.59;51.91
6668;BME280;3370;47.712;9.082;2023-04-21T13:13:50;96422.63;;;16.77;53.09
6668;BME280;3370;47.712;9.082;2023-04-21T13:16:16;96417.19;;;16.80;53.73
6668;BME280;3370;47.712;9.082;2023-04-21T13:18:44;96421.94;;;16.86;52.83
6668;BME280;3370;47.712;9.082;2023-04-21T13:21:09;96420.00;;;16.99;54.43
6668;BME280;3370;47.712;9.082;2023-04-21T13:23:35;96421.34;;;17.15;53.78
6668;BME280;3370;47.712;9.082;2023-04-21T13:26:01;96425.25;;;16.88;53.62
6668;BME280;3370;47.712;9.082;2023-04-21T13:28:27;96429.28;;;16.58;55.04
6668;BME280;3370;47.712;9.082;2023-04-21T13:30:53;96437.13;;;15.79;57.76
6668;BME280;3370;47.712;9.082;2023-04-21T13:33:19;96440.97;;;15.16;60.15
6668;BME280;3370;47.712;9.082;2023-04-21T13:35:46;96441.69;;;14.93;63.05
6668;BME280;3370;47.712;9.082;2023-04-21T13:38:11;96438.50;;;14.53;64.71
6668;BME280;3370;47.712;9.082;2023-04-21T13:40:37;96444.44;;;14.42;66.49